Time;durP1;ratioP1;P1;durP2;ratioP2;P2;SDS_P1;SDS_P2;PMS_P1;PMS_P2;Temp;Humidity;BMP_temperature;BMP_pressure;BME280_temperature;BME280_humidity;BME280_pressure;Samples;Min_cycle;Max_cycle;Signal;HPM_P1;HPM_P2
2023/01/23 00:00:58;;;;;;;9.00;8.70;;;1.00;99.90;;;;;;5142270;27;20308;-86
2023/01/23 00:10:46;;;;;;;9.00;8.70;;;1.00;99.90;;;;;;5057813;28;20273;-85
2023/01/23 00:16:38;;;;;;;8.90;8.60;;;1.00;99.90;;;;;;5148099;27;20223;-86
2023/01/23 00:20:10;;;;;;;8.90;8.60;;;1.10;99.90;;;;;;5149428;27;20232;-85
2023/01/23 00:22:39;;;;;;;8.67;8.47;;;1.10;99.90;;;;;;5117079;22;20229;-85
2023/01/23 00:25:08;;;;;;;8.70;8.50;;;1.10;99.90;;;;;;5083836;28;20223;-85
2023/01/23 00:27:37;;;;;;;8.90;8.60;;;1.10;99.90;;;;;;5101960;28;20217;-84
2023/01/23 00:30:06;;;;;;;8.90;8.60;;;1.00;99.90;;;;;;5091909;28;20240;-84
2023/01/23 00:32:36;;;;;;;9.00;8.70;;;1.10;99.90;;;;;;5093479;28;20252;-86
2023/01/23 00:35:07;;;;;;;8.90;8.60;;;1.10;99.90;;;;;;5091947;28;20234;-85
2023/01/23 00:37:35;;;;;;;9.00;8.70;;;1.10;99.90;;;;;;5086918;28;20240;-84
2023/01/23 00:42:52;;;;;;;9.00;8.70;;;1.10;99.90;;;;;;5087974;28;20966;-85
2023/01/23 00:45:21;;;;;;;8.90;8.60;;;1.10;99.90;;;;;;5080524;28;20229;-84
2023/01/23 00:47:51;;;;;;;8.70;8.47;;;1.10;99.90;;;;;;5080930;28;20258;-85
2023/01/23 00:50:20;;;;;;;8.90;8.60;;;1.00;99.90;;;;;;5081110;28;20320;-85
2023/01/23 00:52:51;;;;;;;9.10;8.80;;;1.10;99.90;;;;;;5080549;28;20238;-84
2023/01/23 00:55:22;;;;;;;8.90;8.60;;;1.10;99.90;;;;;;5080010;28;20269;-85
2023/01/23 00:57:49;;;;;;;8.90;8.60;;;1.20;99.90;;;;;;5080910;28;20230;-84
2023/01/23 01:00:18;;;;;;;8.90;8.60;;;1.20;99.90;;;;;;5080826;28;20256;-86
2023/01/23 01:02:48;;;;;;;8.93;8.63;;;1.20;99.90;;;;;;5081514;28;20265;-85
2023/01/23 01:05:17;;;;;;;8.90;8.60;;;1.20;99.90;;;;;;5081330;28;20290;-85
2023/01/23 01:07:47;;;;;;;8.57;8.37;;;1.20;99.90;;;;;;5080773;28;20305;-85
2023/01/23 01:10:19;;;;;;;8.90;8.60;;;1.20;99.90;;;;;;5083724;28;20299;-85
2023/01/23 01:12:48;;;;;;;9.00;8.70;;;1.20;99.90;;;;;;5084151;28;20230;-85
2023/01/23 01:15:18;;;;;;;8.90;8.60;;;1.10;99.90;;;;;;5084082;28;20260;-86
2023/01/23 01:17:45;;;;;;;8.87;8.57;;;1.20;99.90;;;;;;5083764;28;20230;-86
2023/01/23 01:20:14;;;;;;;8.50;8.30;;;1.20;99.90;;;;;;5083528;28;20241;-85
2023/01/23 01:22:43;;;;;;;8.93;8.63;;;1.20;99.90;;;;;;5083096;28;20234;-85
2023/01/23 01:25:13;;;;;;;8.70;8.50;;;1.20;99.90;;;;;;5083308;28;20349;-85
2023/01/23 01:27:44;;;;;;;8.83;8.53;;;1.20;99.90;;;;;;5083492;28;20230;-85
2023/01/23 01:30:24;;;;;;;8.90;8.60;;;1.20;99.90;;;;;;5083454;28;20234;-85
2023/01/23 01:32:52;;;;;;;8.63;8.43;;;1.10;99.90;;;;;;5083478;28;20246;-86
2023/01/23 01:35:20;;;;;;;8.50;8.30;;;1.10;99.90;;;;;;5083278;28;20218;-85
2023/01/23 01:37:48;;;;;;;8.53;8.33;;;1.20;99.90;;;;;;5091465;28;20222;-86
2023/01/23 01:40:27;;;;;;;8.90;8.60;;;1.20;99.90;;;;;;5082372;28;20238;-85
2023/01/23 01:43:06;;;;;;;8.93;8.63;;;1.20;99.90;;;;;;5082655;28;20269;-85
2023/01/23 01:46:19;;;;;;;9.00;8.70;;;1.20;99.90;;;;;;5083414;28;20244;-85
2023/01/23 01:49:05;;;;;;;8.83;8.53;;;1.10;99.90;;;;;;5082949;28;20382;-85
2023/01/23 01:51:44;;;;;;;8.87;8.57;;;1.10;99.90;;;;;;5083332;28;20237;-85
2023/01/23 01:54:22;;;;;;;9.00;8.70;;;1.10;99.90;;;;;;5083105;28;20237;-85
2023/01/23 01:57:00;;;;;;;8.73;8.50;;;1.10;99.90;;;;;;5083337;28;20282;-85
2023/01/23 01:59:31;;;;;;;8.90;8.60;;;1.20;99.90;;;;;;5083319;28;20308;-85
2023/01/23 02:02:07;;;;;;;8.70;8.50;;;1.20;99.90;;;;;;5083090;28;20237;-85
2023/01/23 02:07:33;;;;;;;8.90;8.60;;;1.20;99.90;;;;;;5085493;28;20226;-85
2023/01/23 02:10:05;;;;;;;9.00;8.70;;;1.20;99.90;;;;;;5082430;28;20233;-84
2023/01/23 02:12:34;;;;;;;8.67;8.47;;;1.30;99.90;;;;;;5082242;28;20242;-83
2023/01/23 02:15:03;;;;;;;8.90;8.60;;;1.30;99.90;;;;;;5082573;28;20253;-86
2023/01/23 02:20:26;;;;;;;8.97;8.67;;;1.30;99.90;;;;;;5093490;28;20229;-85
2023/01/23 02:23:05;;;;;;;8.60;8.40;;;1.30;99.90;;;;;;5082998;28;20237;-85
2023/01/23 02:25:52;;;;;;;8.70;8.50;;;1.30;99.90;;;;;;5082279;28;20297;-84
2023/01/23 02:28:22;;;;;;;8.57;8.37;;;1.30;99.90;;;;;;5082326;28;20282;-85
2023/01/23 02:30:50;;;;;;;8.90;8.60;;;1.20;99.90;;;;;;5082566;28;20222;-85
2023/01/23 02:33:48;;;;;;;9.00;8.70;;;1.20;99.90;;;;;;5082232;28;20312;-85
2023/01/23 02:36:18;;;;;;;9.00;8.70;;;1.20;99.90;;;;;;5082234;28;20279;-85
2023/01/23 02:38:56;;;;;;;9.00;8.70;;;1.20;99.90;;;;;;5082386;28;20230;-85
2023/01/23 02:41:35;;;;;;;9.10;8.80;;;1.10;99.90;;;;;;5082546;28;20264;-85
2023/01/23 02:44:12;;;;;;;8.97;8.67;;;1.00;99.90;;;;;;5082226;28;20233;-88
2023/01/23 02:46:42;;;;;;;9.00;8.70;;;1.00;99.90;;;;;;5082061;28;20246;-85
2023/01/23 02:49:11;;;;;;;8.87;8.57;;;1.10;99.90;;;;;;5082076;28;20281;-85
2023/01/23 02:51:41;;;;;;;8.90;8.60;;;1.20;99.90;;;;;;5081869;28;20231;-85
2023/01/23 02:54:39;;;;;;;8.97;8.67;;;1.20;99.90;;;;;;5093221;28;20217;-85
2023/01/23 02:57:09;;;;;;;8.50;8.30;;;1.30;99.90;;;;;;5099654;28;20218;-85
2023/01/23 03:02:35;;;;;;;8.50;8.30;;;1.20;99.90;;;;;;5099938;28;20210;-84
2023/01/23 03:05:03;;;;;;;8.53;8.33;;;1.10;99.90;;;;;;5084919;28;20226;-84
2023/01/23 03:07:31;;;;;;;8.90;8.60;;;0.90;99.90;;;;;;5082523;28;20218;-85
2023/01/23 03:10:00;;;;;;;8.77;8.53;;;0.90;99.90;;;;;;5081515;28;20236;-85
2023/01/23 03:12:32;;;;;;;8.90;8.60;;;0.90;99.90;;;;;;5081623;28;20265;-85
2023/01/23 03:15:00;;;;;;;8.87;8.57;;;1.00;99.90;;;;;;5082069;28;20230;-85
2023/01/23 03:17:28;;;;;;;8.90;8.60;;;0.90;99.90;;;;;;5082078;28;20230;-84
2023/01/23 03:19:57;;;;;;;8.60;8.40;;;1.00;99.90;;;;;;5081519;28;20242;-85
2023/01/23 03:22:27;;;;;;;8.50;8.30;;;1.00;99.90;;;;;;5080264;28;20230;-85
2023/01/23 03:24:56;;;;;;;8.90;8.60;;;1.00;99.90;;;;;;5080615;28;20296;-85
2023/01/23 03:27:26;;;;;;;8.77;8.50;;;1.00;99.90;;;;;;5080678;28;20233;-86
2023/01/23 03:30:15;;;;;;;8.90;8.60;;;1.00;99.90;;;;;;5081246;28;20234;-84
2023/01/23 03:32:44;;;;;;;8.60;8.40;;;1.10;99.90;;;;;;5080722;28;20214;-85
2023/01/23 03:35:21;;;;;;;8.60;8.40;;;1.10;99.90;;;;;;5081336;28;20230;-85
2023/01/23 03:37:52;;;;;;;8.60;8.40;;;1.10;99.90;;;;;;5081234;28;20222;-86
2023/01/23 03:43:08;;;;;;;8.50;8.30;;;1.00;99.90;;;;;;5094168;28;20230;-83
2023/01/23 03:45:45;;;;;;;8.43;8.23;;;1.00;99.90;;;;;;5086760;28;20265;-86
2023/01/23 03:48:16;;;;;;;8.30;8.10;;;1.00;99.90;;;;;;5080857;28;20249;-86
2023/01/23 03:50:44;;;;;;;8.50;8.30;;;1.00;99.90;;;;;;5080808;28;20206;-85
2023/01/23 03:53:14;;;;;;;8.50;8.30;;;1.00;99.90;;;;;;5080053;28;20363;-86
2023/01/23 03:55:47;;;;;;;8.50;8.30;;;1.00;99.90;;;;;;5081061;28;20276;-86
2023/01/23 03:58:15;;;;;;;8.53;8.33;;;1.00;99.90;;;;;;5080924;28;20238;-84
2023/01/23 04:00:50;;;;;;;8.60;8.40;;;1.00;99.90;;;;;;5085060;28;20230;-82
2023/01/23 04:03:30;;;;;;;9.10;8.80;;;0.90;99.90;;;;;;5099586;28;20190;-86
2023/01/23 04:05:59;;;;;;;8.87;8.57;;;0.90;99.90;;;;;;5080431;28;20264;-86
2023/01/23 04:08:28;;;;;;;9.17;8.87;;;1.00;99.90;;;;;;5081058;28;20234;-86
2023/01/23 04:11:09;;;;;;;9.00;8.70;;;1.00;99.90;;;;;;5079808;28;20237;-85
2023/01/23 04:13:45;;;;;;;8.87;8.60;;;1.10;99.90;;;;;;5080347;28;20284;-86
2023/01/23 04:16:22;;;;;;;8.90;8.60;;;1.10;99.90;;;;;;5082161;28;20320;-86
2023/01/23 04:18:53;;;;;;;8.93;8.63;;;1.00;99.90;;;;;;5081109;28;20229;-85
2023/01/23 04:21:28;;;;;;;9.00;8.70;;;1.00;99.90;;;;;;5079367;28;20287;-86
2023/01/23 04:24:02;;;;;;;8.90;8.60;;;1.00;99.90;;;;;;5079894;28;20238;-85
2023/01/23 04:29:17;;;;;;;9.00;8.70;;;1.00;99.90;;;;;;5097564;28;20222;-85
2023/01/23 04:31:57;;;;;;;8.90;8.60;;;1.10;99.90;;;;;;5082219;28;20256;-86
2023/01/23 04:34:34;;;;;;;8.87;8.60;;;1.10;99.90;;;;;;5080324;28;20241;-86
2023/01/23 04:37:14;;;;;;;9.17;8.87;;;1.00;99.90;;;;;;5079779;28;20248;-86
2023/01/23 04:39:42;;;;;;;8.97;8.67;;;0.90;99.90;;;;;;5080353;28;20226;-86
2023/01/23 04:42:12;;;;;;;9.00;8.70;;;0.90;99.90;;;;;;5080012;28;20234;-85
2023/01/23 04:44:51;;;;;;;9.13;8.83;;;0.80;99.90;;;;;;5084483;28;20288;-85
2023/01/23 04:47:36;;;;;;;9.30;9.00;;;0.80;99.90;;;;;;5084806;28;20300;-86
2023/01/23 04:50:06;;;;;;;9.33;9.03;;;0.70;99.90;;;;;;5083906;28;20234;-85
2023/01/23 04:52:35;;;;;;;9.40;9.10;;;0.70;99.90;;;;;;5083618;28;20226;-86
2023/01/23 04:55:04;;;;;;;9.40;9.10;;;0.60;99.90;;;;;;5083412;28;20224;-86
2023/01/23 04:57:35;;;;;;;9.37;9.07;;;0.60;99.90;;;;;;5083547;28;20297;-86
2023/01/23 05:00:03;;;;;;;9.30;9.00;;;0.60;99.90;;;;;;5084079;28;20236;-86
2023/01/23 05:06:20;;;;;;;9.60;9.30;;;0.70;99.90;;;;;;5083656;28;20284;-86
2023/01/23 05:08:52;;;;;;;9.30;9.00;;;0.70;99.90;;;;;;5091269;28;20226;-86
2023/01/23 05:11:26;;;;;;;9.10;8.80;;;0.80;99.90;;;;;;5086081;28;20297;-86
2023/01/23 05:16:49;;;;;;;9.23;8.93;;;0.90;99.90;;;;;;5088359;28;20193;-83
2023/01/23 05:19:23;;;;;;;9.33;9.03;;;1.00;99.90;;;;;;5101455;28;20254;-86
2023/01/23 05:24:48;;;;;;;9.23;8.93;;;0.80;99.90;;;;;;5095081;28;20244;-85
2023/01/23 05:27:19;;;;;;;9.07;8.77;;;0.80;99.90;;;;;;5094798;28;20237;-85
2023/01/23 05:29:51;;;;;;;9.17;8.87;;;0.90;99.90;;;;;;5085020;28;20284;-86
2023/01/23 05:32:28;;;;;;;9.03;8.73;;;0.90;99.90;;;;;;5083826;28;20230;-86
2023/01/23 05:38:17;;;;;;;9.23;8.93;;;0.90;99.90;;;;;;5039348;28;20222;-86
2023/01/23 05:41:04;;;;;;;8.90;8.70;;;1.00;99.90;;;;;;5082762;28;20222;-86
2023/01/23 05:43:39;;;;;;;9.13;8.83;;;1.10;99.90;;;;;;5082992;28;20307;-85
2023/01/23 05:48:52;;;;;;;8.93;8.73;;;1.10;99.90;;;;;;5081437;28;20222;-87
2023/01/23 05:51:31;;;;;;;9.13;8.83;;;1.10;99.90;;;;;;5082899;28;20234;-86
2023/01/23 05:56:58;;;;;;;9.33;9.03;;;1.20;99.90;;;;;;5082287;28;20222;-86
2023/01/23 05:59:28;;;;;;;9.27;8.97;;;1.00;99.90;;;;;;5082541;28;20226;-85
2023/01/23 06:02:05;;;;;;;9.43;9.13;;;1.00;99.90;;;;;;5082114;28;20260;-86
2023/01/23 06:07:28;;;;;;;9.50;9.20;;;1.00;99.90;;;;;;5081490;28;20226;-84
2023/01/23 06:10:05;;;;;;;9.37;9.07;;;1.10;99.90;;;;;;5082230;28;20238;-86
2023/01/23 06:12:35;;;;;;;9.43;9.13;;;1.10;99.90;;;;;;5082567;28;20267;-86
2023/01/23 06:15:24;;;;;;;9.40;9.10;;;1.10;99.90;;;;;;5082118;28;20230;-86
2023/01/23 06:17:52;;;;;;;9.17;8.87;;;1.10;99.90;;;;;;5084231;28;20240;-86
2023/01/23 06:23:36;;;;;;;9.40;9.10;;;1.00;99.90;;;;;;5152137;22;20318;-85
2023/01/23 06:26:17;;;;;;;9.20;8.90;;;1.10;99.90;;;;;;5127742;27;20259;-85
2023/01/23 06:28:44;;;;;;;8.93;8.70;;;1.20;99.90;;;;;;5130525;28;20224;-88
2023/01/23 06:31:32;;;;;;;8.80;8.60;;;1.10;99.90;;;;;;5122897;28;20260;-85
2023/01/23 06:34:03;;;;;;;8.90;8.67;;;1.10;99.90;;;;;;5103021;28;20312;-85
2023/01/23 06:36:57;;;;;;;8.87;8.67;;;1.10;99.90;;;;;;5102233;28;20668;-85
2023/01/23 06:39:35;;;;;;;8.80;8.60;;;1.10;99.90;;;;;;5102392;28;20245;-85
2023/01/23 06:42:08;;;;;;;8.83;8.63;;;1.00;99.90;;;;;;5110691;28;20229;-85
2023/01/23 06:50:11;;;;;;;9.20;8.90;;;0.90;99.90;;;;;;5123435;28;20209;-85
2023/01/23 06:52:40;;;;;;;9.37;9.07;;;0.80;99.90;;;;;;5122408;28;20290;-85
2023/01/23 07:01:36;;;;;;;9.23;8.93;;;0.80;99.90;;;;;;5109192;27;20217;-85
2023/01/23 07:12:32;;;;;;;9.70;9.40;;;1.00;99.90;;;;;;5101614;28;20501;-86
2023/01/23 07:15:06;;;;;;;9.70;9.40;;;1.00;99.90;;;;;;5103801;28;20527;-84
2023/01/23 07:17:33;;;;;;;9.70;9.40;;;1.10;99.90;;;;;;5101888;28;20233;-84
2023/01/23 07:20:08;;;;;;;9.67;9.37;;;1.20;99.90;;;;;;5102660;28;20265;-86
2023/01/23 07:22:38;;;;;;;9.73;9.43;;;1.30;99.90;;;;;;5102201;28;20298;-85
2023/01/23 07:25:09;;;;;;;9.70;9.40;;;1.30;99.90;;;;;;5102660;28;20249;-84
2023/01/23 07:27:40;;;;;;;9.80;9.50;;;1.40;99.90;;;;;;5101966;28;20229;-85
2023/01/23 07:30:16;;;;;;;9.60;9.30;;;1.40;99.90;;;;;;5102033;28;20268;-85
2023/01/23 07:32:47;;;;;;;9.57;9.27;;;1.30;99.90;;;;;;5100871;28;20323;-85
2023/01/23 07:35:14;;;;;;;9.47;9.17;;;1.30;99.90;;;;;;5101069;28;20253;-84
2023/01/23 07:37:44;;;;;;;9.40;9.10;;;1.30;99.90;;;;;;5101362;28;20288;-84
2023/01/23 07:40:13;;;;;;;9.90;9.60;;;1.20;99.90;;;;;;5102046;28;20284;-84
2023/01/23 07:42:45;;;;;;;9.40;9.10;;;1.30;99.90;;;;;;5100760;28;20283;-84
2023/01/23 07:45:13;;;;;;;9.33;9.03;;;1.30;99.90;;;;;;5101079;28;20322;-83
2023/01/23 07:47:41;;;;;;;9.20;8.90;;;1.30;99.90;;;;;;5101813;28;20335;-84
2023/01/23 07:50:19;;;;;;;9.13;8.83;;;1.30;99.90;;;;;;5101356;28;20287;-84
2023/01/23 07:52:49;;;;;;;9.40;9.10;;;1.30;99.90;;;;;;5101056;28;20230;-84
2023/01/23 07:55:19;;;;;;;9.50;9.20;;;1.30;99.90;;;;;;5105842;28;20285;-84
2023/01/23 07:57:57;;;;;;;9.70;9.40;;;1.30;99.90;;;;;;5106181;28;20231;-85
2023/01/23 08:00:26;;;;;;;9.67;9.37;;;1.30;99.90;;;;;;5104121;28;20218;-85
2023/01/23 08:02:55;;;;;;;9.90;9.60;;;1.10;99.90;;;;;;5099548;28;20285;-84
2023/01/23 08:05:24;;;;;;;9.67;9.37;;;1.10;99.90;;;;;;5099683;28;20248;-85
2023/01/23 08:07:54;;;;;;;9.50;9.20;;;1.10;99.90;;;;;;5099702;28;20229;-85
2023/01/23 08:10:24;;;;;;;9.70;9.40;;;1.20;99.90;;;;;;5101135;28;20343;-85
2023/01/23 08:12:56;;;;;;;9.77;9.47;;;1.10;99.90;;;;;;5100915;28;20298;-85
2023/01/23 08:15:32;;;;;;;9.33;9.03;;;1.00;99.90;;;;;;5101194;28;20283;-85
2023/01/23 08:18:02;;;;;;;9.00;8.77;;;1.00;99.90;;;;;;5101845;28;20229;-84
2023/01/23 08:20:30;;;;;;;9.27;8.97;;;1.00;99.90;;;;;;5101338;28;20316;-84
2023/01/23 08:23:01;;;;;;;9.10;8.80;;;1.00;99.90;;;;;;5101663;28;20301;-84
2023/01/23 08:25:31;;;;;;;9.20;8.90;;;1.00;99.90;;;;;;5101111;28;20232;-85
2023/01/23 08:28:01;;;;;;;8.53;8.33;;;1.00;99.90;;;;;;5105915;28;20264;-85
2023/01/23 08:33:18;;;;;;;9.47;9.17;;;1.00;99.90;;;;;;5100222;28;20229;-84
2023/01/23 08:35:56;;;;;;;9.20;8.90;;;1.00;99.90;;;;;;5101115;28;20241;-85
2023/01/23 08:38:28;;;;;;;9.40;9.10;;;1.00;99.90;;;;;;5100229;28;20236;-85
2023/01/23 08:41:04;;;;;;;9.60;9.30;;;1.00;99.90;;;;;;5107740;28;20222;-84
2023/01/23 08:43:35;;;;;;;9.33;9.03;;;1.00;99.90;;;;;;5113870;28;20225;-85
2023/01/23 08:46:13;;;;;;;9.43;9.13;;;1.00;99.90;;;;;;5101789;28;20214;-85
2023/01/23 08:51:28;;;;;;;9.13;8.83;;;1.10;99.90;;;;;;5100128;28;20923;-86
2023/01/23 08:53:55;;;;;;;9.57;9.27;;;1.20;99.90;;;;;;5102666;28;20238;-81
2023/01/23 08:56:24;;;;;;;9.00;8.70;;;1.60;99.90;;;;;;5098175;28;20226;-78
2023/01/23 08:58:54;;;;;;;8.30;8.10;;;1.90;99.90;;;;;;5101430;28;20293;-84
2023/01/23 09:01:24;;;;;;;8.40;8.20;;;1.90;99.90;;;;;;5101696;28;20232;-85
2023/01/23 09:03:54;;;;;;;8.50;8.30;;;1.90;99.90;;;;;;5103341;28;20206;-84
2023/01/23 09:06:24;;;;;;;8.80;8.60;;;1.80;99.90;;;;;;5102723;28;20230;-84
2023/01/23 09:08:53;;;;;;;9.40;9.10;;;1.80;99.90;;;;;;5100790;28;20233;-84
2023/01/23 09:11:22;;;;;;;9.30;9.00;;;1.70;99.90;;;;;;5101849;28;20271;-84
2023/01/23 09:13:51;;;;;;;9.70;9.40;;;1.70;99.90;;;;;;5106030;28;20252;-84
2023/01/23 09:16:24;;;;;;;9.30;9.00;;;1.60;99.90;;;;;;5106423;28;20269;-84
2023/01/23 09:18:51;;;;;;;9.33;9.03;;;1.60;99.90;;;;;;5106499;28;20296;-84
2023/01/23 09:21:20;;;;;;;9.20;8.90;;;1.50;99.90;;;;;;5108613;28;20240;-84
2023/01/23 09:23:49;;;;;;;9.03;8.77;;;1.60;99.90;;;;;;5107578;28;20249;-84
2023/01/23 09:26:19;;;;;;;9.47;9.17;;;1.60;99.90;;;;;;5106962;28;20234;-85
2023/01/23 09:28:48;;;;;;;9.27;8.97;;;1.60;99.90;;;;;;5106146;28;20229;-85
2023/01/23 09:31:18;;;;;;;9.07;8.83;;;1.70;99.90;;;;;;5110333;28;20296;-85
2023/01/23 09:33:50;;;;;;;9.30;9.00;;;1.70;99.90;;;;;;5111295;28;20235;-85
2023/01/23 09:36:17;;;;;;;9.40;9.10;;;1.60;99.90;;;;;;5109785;28;20260;-84
2023/01/23 09:38:47;;;;;;;9.50;9.20;;;1.70;99.90;;;;;;5105873;28;20320;-86
2023/01/23 09:44:06;;;;;;;9.00;8.80;;;1.70;99.90;;;;;;5106073;28;20228;-86
2023/01/23 09:46:41;;;;;;;9.33;9.03;;;1.70;99.90;;;;;;5104810;28;20230;-86
2023/01/23 09:49:31;;;;;;;9.20;8.90;;;1.80;99.90;;;;;;5104046;28;20239;-87
2023/01/23 09:52:16;;;;;;;9.00;8.80;;;1.80;99.90;;;;;;5103537;28;20233;-84
2023/01/23 09:54:47;;;;;;;9.23;8.93;;;1.90;99.90;;;;;;5105260;28;20252;-84
2023/01/23 09:57:18;;;;;;;9.20;8.90;;;2.00;99.90;;;;;;5104646;28;20291;-85
2023/01/23 09:59:52;;;;;;;9.27;8.97;;;2.00;99.90;;;;;;5104902;28;20283;-86
2023/01/23 10:02:24;;;;;;;9.27;8.97;;;2.10;99.90;;;;;;5106064;28;20233;-87
2023/01/23 10:04:55;;;;;;;9.40;9.10;;;2.10;99.90;;;;;;5106204;28;20810;-84
2023/01/23 10:07:49;;;;;;;9.30;9.00;;;2.10;99.90;;;;;;5109361;28;20256;-84
2023/01/23 10:10:51;;;;;;;9.50;9.20;;;2.20;99.90;;;;;;5113557;28;20260;-83
2023/01/23 10:13:30;;;;;;;9.27;8.97;;;2.30;99.90;;;;;;5111175;28;20237;-85
2023/01/23 10:16:37;;;;;;;9.40;9.10;;;2.40;99.90;;;;;;5122455;28;20258;-86
2023/01/23 10:19:22;;;;;;;9.60;9.30;;;2.50;99.90;;;;;;5100248;28;20247;-85
2023/01/23 10:22:01;;;;;;;9.60;9.30;;;2.50;99.90;;;;;;4967669;28;20265;-85
2023/01/23 10:24:48;;;;;;;9.70;9.40;;;2.40;99.90;;;;;;5073454;28;20265;-84
2023/01/23 10:27:26;;;;;;;9.73;9.43;;;2.40;99.90;;;;;;5051486;28;20223;-86
2023/01/23 10:30:03;;;;;;;9.70;9.40;;;2.50;99.90;;;;;;5046268;28;20220;-86
2023/01/23 10:32:45;;;;;;;9.53;9.23;;;2.50;99.90;;;;;;5041610;28;20239;-86
2023/01/23 10:35:28;;;;;;;9.57;9.27;;;2.60;99.90;;;;;;5041560;28;20259;-86
2023/01/23 10:43:42;;;;;;;9.40;9.10;;;2.70;99.90;;;;;;5042506;28;20227;-85
2023/01/23 10:46:14;;;;;;;9.20;8.90;;;2.70;99.90;;;;;;5041377;28;20338;-87
2023/01/23 10:48:53;;;;;;;9.20;8.90;;;2.80;99.90;;;;;;5041875;28;20228;-85
2023/01/23 10:51:46;;;;;;;9.40;9.10;;;2.90;99.90;;;;;;5042285;28;20282;-85
2023/01/23 10:54:25;;;;;;;9.30;9.00;;;3.10;99.90;;;;;;5041558;28;20227;-86
2023/01/23 10:57:03;;;;;;;9.50;9.20;;;3.20;99.90;;;;;;5041003;28;20259;-85
2023/01/23 10:59:51;;;;;;;9.47;9.17;;;3.30;99.90;;;;;;5057260;28;20222;-86
2023/01/23 11:02:31;;;;;;;9.50;9.20;;;3.30;99.90;;;;;;5064531;28;20318;-85
2023/01/23 11:04:59;;;;;;;9.40;9.10;;;3.30;99.90;;;;;;5045998;28;20239;-85
2023/01/23 11:07:29;;;;;;;9.80;9.50;;;3.20;99.90;;;;;;5043184;28;20296;-86
2023/01/23 11:10:05;;;;;;;9.63;9.33;;;3.30;99.90;;;;;;5042403;28;20276;-87
2023/01/23 11:12:52;;;;;;;9.50;9.20;;;3.20;99.90;;;;;;5053478;28;20233;-84
2023/01/23 11:15:32;;;;;;;9.60;9.30;;;3.00;99.90;;;;;;5060118;28;20235;-86
2023/01/23 11:18:01;;;;;;;9.27;8.97;;;3.00;99.90;;;;;;5048663;28;20262;-86
2023/01/23 11:23:18;;;;;;;9.57;9.27;;;3.00;99.90;;;;;;5040253;28;20232;-86
2023/01/23 11:25:50;;;;;;;9.70;9.40;;;3.10;99.90;;;;;;5059244;28;20231;-84
2023/01/23 11:28:25;;;;;;;9.50;9.20;;;3.30;99.90;;;;;;5061445;28;20254;-85
2023/01/23 11:31:03;;;;;;;9.70;9.40;;;3.40;99.90;;;;;;5055277;28;20230;-85
2023/01/23 11:33:41;;;;;;;9.50;9.20;;;3.50;99.90;;;;;;5064163;28;20235;-84
2023/01/23 11:36:37;;;;;;;9.63;9.33;;;3.50;99.90;;;;;;5063246;28;20238;-85
2023/01/23 11:39:22;;;;;;;9.43;9.13;;;3.50;99.90;;;;;;5062690;28;20318;-85
2023/01/23 11:41:54;;;;;;;9.83;9.53;;;3.70;99.90;;;;;;5053374;28;20238;-84
2023/01/23 11:44:23;;;;;;;9.70;9.40;;;3.80;99.90;;;;;;5062129;28;20231;-85
2023/01/23 11:47:26;;;;;;;10.13;9.83;;;3.90;99.90;;;;;;5065976;28;20238;-85
2023/01/23 11:50:15;;;;;;;9.50;9.20;;;3.90;99.90;;;;;;5070472;28;20238;-87
2023/01/23 11:52:54;;;;;;;9.80;9.50;;;3.90;99.90;;;;;;5063461;28;20234;-85
2023/01/23 11:55:56;;;;;;;9.60;9.30;;;3.90;99.90;;;;;;5061646;28;20226;-85
2023/01/23 11:59:13;;;;;;;9.70;9.40;;;4.00;99.90;;;;;;5021225;28;20293;-85
2023/01/23 12:01:56;;;;;;;9.70;9.40;;;4.10;99.90;;;;;;5062687;28;20235;-85
2023/01/23 12:04:53;;;;;;;9.83;9.53;;;4.50;99.90;;;;;;5059859;28;20273;-84
2023/01/23 12:07:22;;;;;;;9.80;9.50;;;4.90;99.90;;;;;;5061016;28;20326;-84
2023/01/23 12:10:05;;;;;;;9.60;9.30;;;5.00;99.90;;;;;;5061299;28;20303;-84
2023/01/23 12:13:07;;;;;;;9.63;9.33;;;5.00;99.90;;;;;;5060551;28;20257;-86
2023/01/23 12:15:51;;;;;;;9.80;9.50;;;4.90;99.90;;;;;;5058653;28;20231;-86
2023/01/23 12:18:39;;;;;;;10.00;9.70;;;4.70;99.90;;;;;;5043751;28;20231;-86
2023/01/23 12:21:16;;;;;;;9.83;9.53;;;4.60;99.90;;;;;;5060363;28;20298;-85
2023/01/23 12:23:58;;;;;;;10.00;9.70;;;4.40;99.90;;;;;;5059657;28;20298;-84
2023/01/23 12:26:34;;;;;;;10.00;9.70;;;4.30;99.90;;;;;;5061699;28;20449;-85
2023/01/23 12:29:38;;;;;;;10.10;9.80;;;4.40;99.90;;;;;;5060329;28;20226;-86
2023/01/23 12:35:34;;;;;;;10.00;9.70;;;5.40;99.90;;;;;;5058622;28;20230;-86
2023/01/23 12:38:31;;;;;;;10.10;9.80;;;5.60;99.90;;;;;;5059483;28;20238;-87
2023/01/23 12:41:15;;;;;;;10.10;9.80;;;6.00;99.90;;;;;;5040678;28;20234;-86
2023/01/23 12:44:20;;;;;;;10.20;9.90;;;6.30;99.90;;;;;;5019128;28;20534;-88
2023/01/23 12:46:57;;;;;;;10.00;9.70;;;6.50;99.90;;;;;;5038723;28;20289;-85
2023/01/23 12:49:38;;;;;;;10.20;9.90;;;6.30;99.90;;;;;;5043331;28;20230;-85
2023/01/23 12:52:13;;;;;;;10.13;9.83;;;6.20;99.90;;;;;;5040047;28;20318;-84
2023/01/23 12:54:52;;;;;;;9.90;9.60;;;6.10;99.90;;;;;;5038315;28;20227;-83
2023/01/23 13:00:52;;;;;;;9.47;9.17;;;5.70;99.90;;;;;;5133078;27;1592524;-85
2023/01/23 13:03:39;;;;;;;9.53;9.23;;;5.20;99.90;;;;;;5149861;27;20231;-85
2023/01/23 13:06:29;;;;;;;9.87;9.57;;;5.00;99.90;;;;;;5158149;27;20219;-84
2023/01/23 13:09:05;;;;;;;9.93;9.63;;;4.80;99.90;;;;;;5159218;27;20231;-84
2023/01/23 13:11:45;;;;;;;9.60;9.30;;;4.70;99.90;;;;;;5158016;27;20276;-86
2023/01/23 13:14:23;;;;;;;9.30;9.00;;;4.70;99.90;;;;;;5159709;27;20249;-86
2023/01/23 13:22:43;;;;;;;9.23;8.93;;;4.50;99.90;;;;;;5139805;27;20286;-86
2023/01/23 13:25:16;;;;;;;9.43;9.13;;;4.70;99.90;;;;;;5137643;27;20234;-86
2023/01/23 13:27:54;;;;;;;10.13;9.83;;;4.80;99.90;;;;;;5138733;27;20276;-86
2023/01/23 13:30:46;;;;;;;9.87;9.57;;;4.70;99.90;;;;;;5147503;27;20285;-86
2023/01/23 13:33:58;;;;;;;9.60;9.30;;;4.70;99.90;;;;;;5159819;27;20239;-85
2023/01/23 13:36:37;;;;;;;9.90;9.60;;;4.90;99.90;;;;;;5158827;27;20266;-86
2023/01/23 13:39:32;;;;;;;9.73;9.43;;;5.20;99.90;;;;;;5138086;27;20312;-86
2023/01/23 13:42:49;;;;;;;9.60;9.30;;;5.40;99.90;;;;;;5155559;27;20300;-86
2023/01/23 13:45:33;;;;;;;9.57;9.27;;;5.50;99.90;;;;;;5119599;27;20232;-85
2023/01/23 13:51:38;;;;;;;9.00;8.80;;;5.70;99.90;;;;;;5152053;27;20211;-85
2023/01/23 13:57:08;;;;;;;9.30;9.00;;;5.30;99.90;;;;;;5163406;27;20319;-85
2023/01/23 13:59:46;;;;;;;9.40;9.10;;;5.10;99.90;;;;;;5160580;27;20241;-86
2023/01/23 14:05:21;;;;;;;9.50;9.20;;;5.00;99.90;;;;;;5159051;27;20216;-85
2023/01/23 14:08:02;;;;;;;9.30;9.00;;;5.10;99.90;;;;;;5155375;27;20284;-83
2023/01/23 14:10:36;;;;;;;9.33;9.03;;;5.10;99.90;;;;;;5135938;27;20315;-82
2023/01/23 14:13:06;;;;;;;9.10;8.90;;;5.20;99.90;;;;;;5127925;28;20282;-82
2023/01/23 14:18:31;;;;;;;9.27;8.97;;;5.30;99.90;;;;;;5128827;28;20238;-84
2023/01/23 14:21:09;;;;;;;9.40;9.10;;;5.20;99.90;;;;;;5128642;28;20292;-83
2023/01/23 14:23:45;;;;;;;9.00;8.80;;;5.20;99.90;;;;;;5127230;28;20240;-82
2023/01/23 14:26:16;;;;;;;9.23;8.93;;;5.20;99.90;;;;;;5127949;28;20224;-83
2023/01/23 14:28:54;;;;;;;9.23;8.93;;;5.10;99.90;;;;;;5129077;28;20240;-82
2023/01/23 14:31:26;;;;;;;8.67;8.47;;;4.90;99.90;;;;;;5127789;28;20232;-82
2023/01/23 14:34:06;;;;;;;8.90;8.70;;;4.80;99.90;;;;;;5129735;28;20237;-83
2023/01/23 14:36:36;;;;;;;9.00;8.80;;;4.70;99.90;;;;;;5128135;28;20223;-81
2023/01/23 14:39:21;;;;;;;9.20;8.90;;;4.60;99.90;;;;;;5133728;28;20237;-82
2023/01/23 14:41:50;;;;;;;9.40;9.10;;;4.60;99.90;;;;;;5134796;28;20286;-82
2023/01/23 14:47:07;;;;;;;9.63;9.33;;;4.50;99.90;;;;;;5127490;28;20232;-84
2023/01/23 14:49:39;;;;;;;9.60;9.30;;;4.50;99.90;;;;;;5130091;28;20221;-85
2023/01/23 14:52:18;;;;;;;9.90;9.60;;;4.50;99.90;;;;;;5128978;28;20721;-85
2023/01/23 14:57:31;;;;;;;9.80;9.50;;;4.40;99.90;;;;;;5123957;28;20311;-84
2023/01/23 15:00:00;;;;;;;10.00;9.70;;;4.30;99.90;;;;;;5124253;28;20236;-84
2023/01/23 15:02:35;;;;;;;9.97;9.67;;;4.20;99.90;;;;;;5125216;28;20244;-84
2023/01/23 15:05:18;;;;;;;9.30;9.00;;;4.20;99.90;;;;;;5124706;28;20292;-85
2023/01/23 15:07:48;;;;;;;9.10;8.90;;;4.20;99.90;;;;;;5124591;28;20253;-84
2023/01/23 15:10:26;;;;;;;9.17;8.90;;;4.20;99.90;;;;;;5124105;28;20255;-85
2023/01/23 15:12:57;;;;;;;9.03;8.80;;;4.10;99.90;;;;;;5123742;28;20317;-84
2023/01/23 15:15:33;;;;;;;8.80;8.60;;;4.10;99.90;;;;;;5136764;28;20247;-85
2023/01/23 15:18:02;;;;;;;9.20;8.90;;;4.10;99.90;;;;;;5128309;28;20270;-85
2023/01/23 15:20:41;;;;;;;8.90;8.70;;;4.00;99.90;;;;;;5126645;28;20260;-84
2023/01/23 15:23:30;;;;;;;9.50;9.20;;;4.00;99.90;;;;;;5129802;27;20236;-85
2023/01/23 15:26:25;;;;;;;9.30;9.00;;;3.90;99.90;;;;;;5145091;27;20231;-85
2023/01/23 15:28:55;;;;;;;9.20;8.90;;;3.90;99.90;;;;;;5145202;27;20349;-85
2023/01/23 15:31:33;;;;;;;9.40;9.10;;;3.80;99.90;;;;;;5146912;27;20697;-86
2023/01/23 15:34:28;;;;;;;9.00;8.80;;;3.80;99.90;;;;;;5140728;27;20343;-85
2023/01/23 15:37:04;;;;;;;8.70;8.50;;;3.70;99.90;;;;;;5127118;28;20261;-86
2023/01/23 15:39:35;;;;;;;8.70;8.50;;;3.60;99.90;;;;;;5127495;28;20280;-85